sensor_id;sensor_type;location;lat;lon;timestamp;temperature;humidity
67133;HTU21D;54052;53.542;49.408;2023-03-01T00:01:32;-3.40;85.84
67133;HTU21D;54052;53.542;49.408;2023-03-01T00:03:59;-3.43;86.54
67133;HTU21D;54052;53.542;49.408;2023-03-01T00:06:26;-3.47;86.54
67133;HTU21D;54052;53.542;49.408;2023-03-01T00:08:53;-3.39;86.66
67133;HTU21D;54052;53.542;49.408;2023-03-01T00:11:22;-3.41;86.78
67133;HTU21D;54052;53.542;49.408;2023-03-01T00:13:50;-3.31;86.64
67133;HTU21D;54052;53.542;49.408;2023-03-01T00:16:20;-3.26;86.06
67133;HTU21D;54052;53.542;49.408;2023-03-01T00:18:46;-3.23;85.69
67133;HTU21D;54052;53.542;49.408;2023-03-01T00:21:12;-3.28;85.99
67133;HTU21D;54052;53.542;49.408;2023-03-01T00:23:39;-3.33;86.32
67133;HTU21D;54052;53.542;49.408;2023-03-01T00:26:08;-3.27;86.19
67133;HTU21D;54052;53.542;49.408;2023-03-01T00:28:34;-3.33;85.81
67133;HTU21D;54052;53.542;49.408;2023-03-01T00:31:08;-3.35;86.27
67133;HTU21D;54052;53.542;49.408;2023-03-01T00:33:35;-3.36;86.06
67133;HTU21D;54052;53.542;49.408;2023-03-01T00:36:02;-3.38;85.98
67133;HTU21D;54052;53.542;49.408;2023-03-01T00:38:29;-3.49;86.70
67133;HTU21D;54052;53.542;49.408;2023-03-01T00:40:55;-3.47;87.03
67133;HTU21D;54052;53.542;49.408;2023-03-01T00:43:21;-3.40;86.48
67133;HTU21D;54052;53.542;49.408;2023-03-01T00:45:47;-3.48;86.84
67133;HTU21D;54052;53.542;49.408;2023-03-01T00:48:13;-3.39;86.63
67133;HTU21D;54052;53.542;49.408;2023-03-01T00:50:39;-3.41;86.43
67133;HTU21D;54052;53.542;49.408;2023-03-01T00:53:05;-3.38;86.77
67133;HTU21D;54052;53.542;49.408;2023-03-01T00:55:31;-3.36;86.93
67133;HTU21D;54052;53.542;49.408;2023-03-01T00:57:57;-3.38;86.96
67133;HTU21D;54052;53.542;49.408;2023-03-01T01:00:23;-3.40;87.15
67133;HTU21D;54052;53.542;49.408;2023-03-01T01:02:49;-3.46;87.22
67133;HTU21D;54052;53.542;49.408;2023-03-01T01:05:15;-3.37;87.13
67133;HTU21D;54052;53.542;49.408;2023-03-01T01:07:47;-3.22;86.50
67133;HTU21D;54052;53.542;49.408;2023-03-01T01:10:13;-3.23;86.30
67133;HTU21D;54052;53.542;49.408;2023-03-01T01:12:46;-3.24;86.35
67133;HTU21D;54052;53.542;49.408;2023-03-01T01:15:13;-3.30;86.54
67133;HTU21D;54052;53.542;49.408;2023-03-01T01:17:40;-3.25;86.80
67133;HTU21D;54052;53.542;49.408;2023-03-01T01:20:06;-3.19;86.54
67133;HTU21D;54052;53.542;49.408;2023-03-01T01:22:33;-3.18;86.80
67133;HTU21D;54052;53.542;49.408;2023-03-01T01:24:59;-3.25;86.89
67133;HTU21D;54052;53.542;49.408;2023-03-01T01:27:24;-3.25;86.81
67133;HTU21D;54052;53.542;49.408;2023-03-01T01:29:52;-3.27;86.78
67133;HTU21D;54052;53.542;49.408;2023-03-01T01:32:18;-3.24;86.49
67133;HTU21D;54052;53.542;49.408;2023-03-01T01:34:44;-3.31;86.78
67133;HTU21D;54052;53.542;49.408;2023-03-01T01:37:12;-3.31;86.94
67133;HTU21D;54052;53.542;49.408;2023-03-01T01:39:38;-3.23;87.05
67133;HTU21D;54052;53.542;49.408;2023-03-01T01:42:04;-3.17;86.77
67133;HTU21D;54052;53.542;49.408;2023-03-01T01:44:30;-3.15;86.42
67133;HTU21D;54052;53.542;49.408;2023-03-01T01:49:23;-3.09;86.54
67133;HTU21D;54052;53.542;49.408;2023-03-01T01:51:53;-3.08;86.20
67133;HTU21D;54052;53.542;49.408;2023-03-01T01:54:28;-3.11;86.40
67133;HTU21D;54052;53.542;49.408;2023-03-01T01:57:00;-3.12;86.37
67133;HTU21D;54052;53.542;49.408;2023-03-01T01:59:27;-3.13;86.65
67133;HTU21D;54052;53.542;49.408;2023-03-01T02:01:54;-3.09;86.11
67133;HTU21D;54052;53.542;49.408;2023-03-01T02:04:20;-3.15;86.19
67133;HTU21D;54052;53.542;49.408;2023-03-01T02:07:14;-3.18;86.54
67133;HTU21D;54052;53.542;49.408;2023-03-01T02:09:43;-3.12;85.96
67133;HTU21D;54052;53.542;49.408;2023-03-01T02:12:11;-3.18;86.40
67133;HTU21D;54052;53.542;49.408;2023-03-01T02:14:37;-3.16;86.52
67133;HTU21D;54052;53.542;49.408;2023-03-01T02:17:05;-3.17;86.43
67133;HTU21D;54052;53.542;49.408;2023-03-01T02:22:34;-3.25;87.03
67133;HTU21D;54052;53.542;49.408;2023-03-01T02:30:40;-3.10;86.12
67133;HTU21D;54052;53.542;49.408;2023-03-01T02:33:27;-3.11;86.78
67133;HTU21D;54052;53.542;49.408;2023-03-01T02:35:54;-3.03;86.01
67133;HTU21D;54052;53.542;49.408;2023-03-01T02:38:22;-3.06;86.10
67133;HTU21D;54052;53.542;49.408;2023-03-01T02:40:50;-3.12;86.54
67133;HTU21D;54052;53.542;49.408;2023-03-01T02:43:18;-3.12;86.32
67133;HTU21D;54052;53.542;49.408;2023-03-01T02:45:50;-3.07;86.55
67133;HTU21D;54052;53.542;49.408;2023-03-01T02:48:17;-2.96;86.06
67133;HTU21D;54052;53.542;49.408;2023-03-01T02:54:25;-2.94;86.04
67133;HTU21D;54052;53.542;49.408;2023-03-01T02:56:53;-2.93;86.29
67133;HTU21D;54052;53.542;49.408;2023-03-01T02:59:30;-2.91;85.89
67133;HTU21D;54052;53.542;49.408;2023-03-01T03:01:56;-2.93;86.00
67133;HTU21D;54052;53.542;49.408;2023-03-01T03:04:22;-2.96;86.29
67133;HTU21D;54052;53.542;49.408;2023-03-01T03:06:50;-2.97;86.09
67133;HTU21D;54052;53.542;49.408;2023-03-01T03:09:17;-3.01;86.57
67133;HTU21D;54052;53.542;49.408;2023-03-01T03:11:43;-2.95;86.29
67133;HTU21D;54052;53.542;49.408;2023-03-01T03:14:11;-3.02;86.69
67133;HTU21D;54052;53.542;49.408;2023-03-01T03:16:48;-2.98;86.68
67133;HTU21D;54052;53.542;49.408;2023-03-01T03:19:18;-2.96;86.48
67133;HTU21D;54052;53.542;49.408;2023-03-01T03:21:44;-2.96;86.41
67133;HTU21D;54052;53.542;49.408;2023-03-01T03:24:10;-3.02;86.66
67133;HTU21D;54052;53.542;49.408;2023-03-01T03:26:36;-2.98;86.69
67133;HTU21D;54052;53.542;49.408;2023-03-01T03:29:02;-3.07;86.72
67133;HTU21D;54052;53.542;49.408;2023-03-01T03:31:31;-3.15;87.47
67133;HTU21D;54052;53.542;49.408;2023-03-01T03:33:57;-3.11;87.53
67133;HTU21D;54052;53.542;49.408;2023-03-01T03:36:24;-3.01;87.25
67133;HTU21D;54052;53.542;49.408;2023-03-01T03:38:53;-2.94;86.99
67133;HTU21D;54052;53.542;49.408;2023-03-01T03:41:19;-2.98;87.06
67133;HTU21D;54052;53.542;49.408;2023-03-01T03:43:45;-2.98;87.24
67133;HTU21D;54052;53.542;49.408;2023-03-01T03:48:15;-2.93;86.96
67133;HTU21D;54052;53.542;49.408;2023-03-01T03:50:50;-3.00;86.84
67133;HTU21D;54052;53.542;49.408;2023-03-01T03:53:18;-2.98;86.96
67133;HTU21D;54052;53.542;49.408;2023-03-01T03:55:44;-2.95;87.11
67133;HTU21D;54052;53.542;49.408;2023-03-01T03:58:11;-2.94;86.74
67133;HTU21D;54052;53.542;49.408;2023-03-01T04:00:40;-2.89;86.36
67133;HTU21D;54052;53.542;49.408;2023-03-01T04:03:07;-2.88;86.56
67133;HTU21D;54052;53.542;49.408;2023-03-01T04:05:34;-2.80;86.79
67133;HTU21D;54052;53.542;49.408;2023-03-01T04:08:01;-2.73;86.13
67133;HTU21D;54052;53.542;49.408;2023-03-01T04:10:28;-2.68;85.92
67133;HTU21D;54052;53.542;49.408;2023-03-01T04:12:55;-2.62;85.81
67133;HTU21D;54052;53.542;49.408;2023-03-01T04:15:22;-2.52;85.30
67133;HTU21D;54052;53.542;49.408;2023-03-01T04:17:51;-2.50;85.45
67133;HTU21D;54052;53.542;49.408;2023-03-01T04:20:23;-2.43;84.69
67133;HTU21D;54052;53.542;49.408;2023-03-01T04:22:57;-2.35;84.45
67133;HTU21D;54052;53.542;49.408;2023-03-01T04:25:24;-2.29;84.51
67133;HTU21D;54052;53.542;49.408;2023-03-01T04:27:49;-2.09;82.72
67133;HTU21D;54052;53.542;49.408;2023-03-01T04:30:16;-2.08;81.91
67133;HTU21D;54052;53.542;49.408;2023-03-01T04:32:42;-2.00;81.85
67133;HTU21D;54052;53.542;49.408;2023-03-01T04:35:08;-1.98;81.56
67133;HTU21D;54052;53.542;49.408;2023-03-01T04:37:34;-1.91;81.46
67133;HTU21D;54052;53.542;49.408;2023-03-01T04:40:02;-1.94;80.96
67133;HTU21D;54052;53.542;49.408;2023-03-01T04:42:38;-1.92;80.78
67133;HTU21D;54052;53.542;49.408;2023-03-01T04:45:05;-1.82;80.41
67133;HTU21D;54052;53.542;49.408;2023-03-01T04:47:43;-1.72;79.86
67133;HTU21D;54052;53.542;49.408;2023-03-01T04:50:12;-1.68;79.69
67133;HTU21D;54052;53.542;49.408;2023-03-01T04:52:38;-1.56;78.53
67133;HTU21D;54052;53.542;49.408;2023-03-01T04:55:05;-1.56;78.38
67133;HTU21D;54052;53.542;49.408;2023-03-01T04:57:32;-1.59;78.45
67133;HTU21D;54052;53.542;49.408;2023-03-01T04:59:58;-1.64;78.93
67133;HTU21D;54052;53.542;49.408;2023-03-01T05:02:24;-1.64;78.59
67133;HTU21D;54052;53.542;49.408;2023-03-01T05:04:50;-1.54;78.46
67133;HTU21D;54052;53.542;49.408;2023-03-01T05:07:16;-1.26;78.26
67133;HTU21D;54052;53.542;49.408;2023-03-01T05:09:48;-0.96;75.58
67133;HTU21D;54052;53.542;49.408;2023-03-01T05:12:14;-0.87;75.39
67133;HTU21D;54052;53.542;49.408;2023-03-01T05:14:41;-0.74;74.94
67133;HTU21D;54052;53.542;49.408;2023-03-01T05:17:07;-0.65;74.15
67133;HTU21D;54052;53.542;49.408;2023-03-01T05:19:34;-0.44;72.97
67133;HTU21D;54052;53.542;49.408;2023-03-01T05:22:00;-0.47;72.70
67133;HTU21D;54052;53.542;49.408;2023-03-01T05:24:34;-0.40;72.74
67133;HTU21D;54052;53.542;49.408;2023-03-01T05:27:02;-0.10;71.38
67133;HTU21D;54052;53.542;49.408;2023-03-01T05:29:30;0.16;70.93
67133;HTU21D;54052;53.542;49.408;2023-03-01T05:31:58;0.34;69.19
67133;HTU21D;54052;53.542;49.408;2023-03-01T05:34:32;0.38;69.44
67133;HTU21D;54052;53.542;49.408;2023-03-01T05:36:59;0.32;69.54
67133;HTU21D;54052;53.542;49.408;2023-03-01T05:39:27;0.36;69.61
67133;HTU21D;54052;53.542;49.408;2023-03-01T05:41:58;0.60;68.26
67133;HTU21D;54052;53.542;49.408;2023-03-01T05:44:24;0.67;67.62
67133;HTU21D;54052;53.542;49.408;2023-03-01T05:46:51;0.58;68.65
67133;HTU21D;54052;53.542;49.408;2023-03-01T05:49:17;0.30;69.16
67133;HTU21D;54052;53.542;49.408;2023-03-01T05:51:48;0.08;69.87
67133;HTU21D;54052;53.542;49.408;2023-03-01T05:54:15;0.19;69.45
67133;HTU21D;54052;53.542;49.408;2023-03-01T05:56:41;0.09;69.77
67133;HTU21D;54052;53.542;49.408;2023-03-01T05:59:07;0.29;69.33
67133;HTU21D;54052;53.542;49.408;2023-03-01T06:01:34;0.53;69.07
67133;HTU21D;54052;53.542;49.408;2023-03-01T06:04:02;0.76;67.32
67133;HTU21D;54052;53.542;49.408;2023-03-01T06:06:28;0.65;67.10
67133;HTU21D;54052;53.542;49.408;2023-03-01T06:08:54;0.54;67.54
67133;HTU21D;54052;53.542;49.408;2023-03-01T06:11:21;0.32;68.07
67133;HTU21D;54052;53.542;49.408;2023-03-01T06:13:47;0.42;68.71
67133;HTU21D;54052;53.542;49.408;2023-03-01T06:16:14;0.37;68.39
67133;HTU21D;54052;53.542;49.408;2023-03-01T06:18:40;0.30;69.50
67133;HTU21D;54052;53.542;49.408;2023-03-01T06:21:07;0.34;67.88
67133;HTU21D;54052;53.542;49.408;2023-03-01T06:23:34;0.14;69.23
67133;HTU21D;54052;53.542;49.408;2023-03-01T06:26:00;0.37;68.06
67133;HTU21D;54052;53.542;49.408;2023-03-01T06:28:30;0.31;69.23
67133;HTU21D;54052;53.542;49.408;2023-03-01T06:30:56;0.27;69.25
67133;HTU21D;54052;53.542;49.408;2023-03-01T06:33:22;0.38;68.37
67133;HTU21D;54052;53.542;49.408;2023-03-01T06:35:51;0.23;67.60
67133;HTU21D;54052;53.542;49.408;2023-03-01T06:38:17;0.29;68.33
67133;HTU21D;54052;53.542;49.408;2023-03-01T06:40:45;-0.07;69.14
67133;HTU21D;54052;53.542;49.408;2023-03-01T06:43:17;-0.26;70.13
67133;HTU21D;54052;53.542;49.408;2023-03-01T06:45:42;-0.31;71.71
67133;HTU21D;54052;53.542;49.408;2023-03-01T06:48:08;-0.84;74.55
67133;HTU21D;54052;53.542;49.408;2023-03-01T06:50:35;-1.08;75.64
67133;HTU21D;54052;53.542;49.408;2023-03-01T06:53:01;-2.02;77.55
67133;HTU21D;54052;53.542;49.408;2023-03-01T06:55:27;-2.41;76.90
67133;HTU21D;54052;53.542;49.408;2023-03-01T06:57:57;-2.19;76.76
67133;HTU21D;54052;53.542;49.408;2023-03-01T07:00:24;-1.74;73.17
67133;HTU21D;54052;53.542;49.408;2023-03-01T07:02:51;-1.35;71.73
67133;HTU21D;54052;53.542;49.408;2023-03-01T07:05:17;-1.33;71.13
67133;HTU21D;54052;53.542;49.408;2023-03-01T07:07:43;-0.94;68.76
67133;HTU21D;54052;53.542;49.408;2023-03-01T07:10:09;-0.52;66.98
67133;HTU21D;54052;53.542;49.408;2023-03-01T07:12:36;-0.41;65.73
67133;HTU21D;54052;53.542;49.408;2023-03-01T07:15:03;-0.56;67.07
67133;HTU21D;54052;53.542;49.408;2023-03-01T07:17:29;-0.61;68.71
67133;HTU21D;54052;53.542;49.408;2023-03-01T07:19:56;-0.30;68.62
67133;HTU21D;54052;53.542;49.408;2023-03-01T07:22:22;-0.24;68.46
67133;HTU21D;54052;53.542;49.408;2023-03-01T07:24:48;-0.30;68.23
67133;HTU21D;54052;53.542;49.408;2023-03-01T07:27:14;-0.03;68.10
67133;HTU21D;54052;53.542;49.408;2023-03-01T07:29:40;0.27;66.27
67133;HTU21D;54052;53.542;49.408;2023-03-01T07:32:06;0.32;64.47
67133;HTU21D;54052;53.542;49.408;2023-03-01T07:34:32;0.52;64.53
67133;HTU21D;54052;53.542;49.408;2023-03-01T07:36:58;0.31;64.11
67133;HTU21D;54052;53.542;49.408;2023-03-01T07:39:24;-0.03;65.59
67133;HTU21D;54052;53.542;49.408;2023-03-01T07:41:51;-0.08;65.46
67133;HTU21D;54052;53.542;49.408;2023-03-01T07:44:17;0.06;64.73
67133;HTU21D;54052;53.542;49.408;2023-03-01T07:46:43;-0.11;64.94
67133;HTU21D;54052;53.542;49.408;2023-03-01T07:49:10;-0.19;62.55
67133;HTU21D;54052;53.542;49.408;2023-03-01T07:51:36;-0.38;64.19
67133;HTU21D;54052;53.542;49.408;2023-03-01T07:54:02;-0.68;62.98
67133;HTU21D;54052;53.542;49.408;2023-03-01T07:56:27;-0.62;63.15
67133;HTU21D;54052;53.542;49.408;2023-03-01T07:58:54;-0.60;63.26
67133;HTU21D;54052;53.542;49.408;2023-03-01T08:01:22;-1.06;64.39
67133;HTU21D;54052;53.542;49.408;2023-03-01T08:03:48;-1.23;66.34
67133;HTU21D;54052;53.542;49.408;2023-03-01T08:06:16;-0.85;64.90
67133;HTU21D;54052;53.542;49.408;2023-03-01T08:08:42;-0.59;63.44
67133;HTU21D;54052;53.542;49.408;2023-03-01T08:11:10;-0.58;63.86
67133;HTU21D;54052;53.542;49.408;2023-03-01T08:13:37;-0.87;64.98
67133;HTU21D;54052;53.542;49.408;2023-03-01T08:16:09;-1.16;65.11
67133;HTU21D;54052;53.542;49.408;2023-03-01T08:18:35;-1.60;66.60
67133;HTU21D;54052;53.542;49.408;2023-03-01T08:21:10;-1.94;67.32
67133;HTU21D;54052;53.542;49.408;2023-03-01T08:23:36;-2.00;66.24
67133;HTU21D;54052;53.542;49.408;2023-03-01T08:28:33;-1.18;64.64
67133;HTU21D;54052;53.542;49.408;2023-03-01T08:30:59;-0.90;63.48
67133;HTU21D;54052;53.542;49.408;2023-03-01T08:33:25;-0.76;62.09
67133;HTU21D;54052;53.542;49.408;2023-03-01T08:35:51;-0.56;61.36
67133;HTU21D;54052;53.542;49.408;2023-03-01T08:38:17;-0.28;61.70
67133;HTU21D;54052;53.542;49.408;2023-03-01T08:40:43;-0.00;60.56
67133;HTU21D;54052;53.542;49.408;2023-03-01T08:43:09;-0.34;60.51
67133;HTU21D;54052;53.542;49.408;2023-03-01T08:45:35;-0.66;62.24
67133;HTU21D;54052;53.542;49.408;2023-03-01T08:48:01;-0.59;61.83
67133;HTU21D;54052;53.542;49.408;2023-03-01T08:50:27;-0.58;60.98
67133;HTU21D;54052;53.542;49.408;2023-03-01T08:52:52;-0.85;62.29
67133;HTU21D;54052;53.542;49.408;2023-03-01T08:55:18;-1.33;63.70
67133;HTU21D;54052;53.542;49.408;2023-03-01T08:57:44;-2.04;66.09
67133;HTU21D;54052;53.542;49.408;2023-03-01T09:00:11;-2.35;67.99
67133;HTU21D;54052;53.542;49.408;2023-03-01T09:02:37;-2.38;67.74
67133;HTU21D;54052;53.542;49.408;2023-03-01T09:05:04;-2.56;68.54
67133;HTU21D;54052;53.542;49.408;2023-03-01T09:07:30;-2.73;69.53
67133;HTU21D;54052;53.542;49.408;2023-03-01T09:09:56;-2.89;70.05
67133;HTU21D;54052;53.542;49.408;2023-03-01T09:12:22;-2.79;70.60
67133;HTU21D;54052;53.542;49.408;2023-03-01T09:14:48;-2.68;70.05
67133;HTU21D;54052;53.542;49.408;2023-03-01T09:17:14;-2.71;69.71
67133;HTU21D;54052;53.542;49.408;2023-03-01T09:19:40;-2.65;70.07
67133;HTU21D;54052;53.542;49.408;2023-03-01T09:22:06;-2.46;69.94
67133;HTU21D;54052;53.542;49.408;2023-03-01T09:24:32;-2.39;70.35
67133;HTU21D;54052;53.542;49.408;2023-03-01T09:26:58;-2.54;71.53
67133;HTU21D;54052;53.542;49.408;2023-03-01T09:29:24;-2.72;72.67
67133;HTU21D;54052;53.542;49.408;2023-03-01T09:31:51;-2.83;72.77
67133;HTU21D;54052;53.542;49.408;2023-03-01T09:34:21;-2.88;72.25
67133;HTU21D;54052;53.542;49.408;2023-03-01T09:36:49;-2.62;71.84
67133;HTU21D;54052;53.542;49.408;2023-03-01T09:39:16;-2.39;68.33
67133;HTU21D;54052;53.542;49.408;2023-03-01T09:41:57;-2.26;66.95
67133;HTU21D;54052;53.542;49.408;2023-03-01T09:44:51;-2.24;65.66
67133;HTU21D;54052;53.542;49.408;2023-03-01T09:47:24;-2.29;65.75
67133;HTU21D;54052;53.542;49.408;2023-03-01T09:55:20;-2.32;63.42
67133;HTU21D;54052;53.542;49.408;2023-03-01T09:57:55;-2.00;63.01
67133;HTU21D;54052;53.542;49.408;2023-03-01T10:03:16;-1.95;61.51
67133;HTU21D;54052;53.542;49.408;2023-03-01T10:08:49;-1.80;60.71
67133;HTU21D;54052;53.542;49.408;2023-03-01T10:11:24;-1.73;60.33
67133;HTU21D;54052;53.542;49.408;2023-03-01T10:14:04;-1.74;62.99
67133;HTU21D;54052;53.542;49.408;2023-03-01T10:16:42;-1.79;66.76
67133;HTU21D;54052;53.542;49.408;2023-03-01T10:22:31;-1.56;66.76
67133;HTU21D;54052;53.542;49.408;2023-03-01T10:24:59;-1.58;66.81
67133;HTU21D;54052;53.542;49.408;2023-03-01T10:27:53;-1.87;68.96
67133;HTU21D;54052;53.542;49.408;2023-03-01T10:30:29;-2.05;69.41
67133;HTU21D;54052;53.542;49.408;2023-03-01T10:32:58;-1.85;65.90
67133;HTU21D;54052;53.542;49.408;2023-03-01T10:35:28;-2.08;66.70
67133;HTU21D;54052;53.542;49.408;2023-03-01T10:38:12;-2.44;68.23
67133;HTU21D;54052;53.542;49.408;2023-03-01T10:40:54;-2.63;68.25
67133;HTU21D;54052;53.542;49.408;2023-03-01T10:43:21;-2.54;66.33
67133;HTU21D;54052;53.542;49.408;2023-03-01T10:45:48;-2.62;67.01
67133;HTU21D;54052;53.542;49.408;2023-03-01T10:48:24;-2.65;64.72
67133;HTU21D;54052;53.542;49.408;2023-03-01T10:53:29;-2.71;62.78
67133;HTU21D;54052;53.542;49.408;2023-03-01T10:56:04;-2.83;62.42
67133;HTU21D;54052;53.542;49.408;2023-03-01T10:58:33;-2.90;62.60
67133;HTU21D;54052;53.542;49.408;2023-03-01T11:01:23;-3.03;63.62
67133;HTU21D;54052;53.542;49.408;2023-03-01T11:06:32;-2.91;61.36
67133;HTU21D;54052;53.542;49.408;2023-03-01T11:09:17;-2.73;61.65
67133;HTU21D;54052;53.542;49.408;2023-03-01T11:11:45;-2.81;62.18
67133;HTU21D;54052;53.542;49.408;2023-03-01T11:14:23;-2.52;61.62
67133;HTU21D;54052;53.542;49.408;2023-03-01T11:17:00;-2.29;61.02
67133;HTU21D;54052;53.542;49.408;2023-03-01T11:19:26;-2.09;61.20
67133;HTU21D;54052;53.542;49.408;2023-03-01T11:22:11;-1.79;60.29
67133;HTU21D;54052;53.542;49.408;2023-03-01T11:24:41;-1.48;60.49
67133;HTU21D;54052;53.542;49.408;2023-03-01T11:27:32;-1.30;57.60
67133;HTU21D;54052;53.542;49.408;2023-03-01T11:32:38;-1.14;57.50
67133;HTU21D;54052;53.542;49.408;2023-03-01T11:40:25;-1.54;58.15
67133;HTU21D;54052;53.542;49.408;2023-03-01T11:43:02;-1.41;58.99
67133;HTU21D;54052;53.542;49.408;2023-03-01T11:45:53;-1.06;57.02
67133;HTU21D;54052;53.542;49.408;2023-03-01T11:51:05;-1.25;57.43
67133;HTU21D;54052;53.542;49.408;2023-03-01T11:56:41;-1.85;61.86
67133;HTU21D;54052;53.542;49.408;2023-03-01T12:02:19;-2.39;64.77
67133;HTU21D;54052;53.542;49.408;2023-03-01T12:05:03;-2.36;64.69
67133;HTU21D;54052;53.542;49.408;2023-03-01T12:07:57;-2.28;64.93
67133;HTU21D;54052;53.542;49.408;2023-03-01T12:21:50;-2.18;62.31
67133;HTU21D;54052;53.542;49.408;2023-03-01T12:30:32;-3.13;72.74
67133;HTU21D;54052;53.542;49.408;2023-03-01T12:33:35;-3.42;73.99
67133;HTU21D;54052;53.542;49.408;2023-03-01T12:38:50;-3.18;67.27
67133;HTU21D;54052;53.542;49.408;2023-03-01T12:47:05;-2.46;63.71
67133;HTU21D;54052;53.542;49.408;2023-03-01T12:49:47;-2.50;62.66
67133;HTU21D;54052;53.542;49.408;2023-03-01T12:54:49;-2.83;64.00
67133;HTU21D;54052;53.542;49.408;2023-03-01T12:57:45;-2.76;63.98
67133;HTU21D;54052;53.542;49.408;2023-03-01T13:10:51;-3.31;64.45
67133;HTU21D;54052;53.542;49.408;2023-03-01T13:13:25;-3.27;63.44
67133;HTU21D;54052;53.542;49.408;2023-03-01T13:15:52;-3.34;64.43
67133;HTU21D;54052;53.542;49.408;2023-03-01T13:21:03;-3.25;64.38
67133;HTU21D;54052;53.542;49.408;2023-03-01T13:23:36;-3.26;62.60
67133;HTU21D;54052;53.542;49.408;2023-03-01T13:31:00;-3.46;63.15
67133;HTU21D;54052;53.542;49.408;2023-03-01T13:35:58;-3.57;62.37
67133;HTU21D;54052;53.542;49.408;2023-03-01T13:38:56;-3.64;62.77
67133;HTU21D;54052;53.542;49.408;2023-03-01T13:46:52;-3.74;61.38
67133;HTU21D;54052;53.542;49.408;2023-03-01T13:49:22;-3.74;60.60
67133;HTU21D;54052;53.542;49.408;2023-03-01T13:51:50;-3.76;61.88
67133;HTU21D;54052;53.542;49.408;2023-03-01T13:54:38;-3.70;61.31
67133;HTU21D;54052;53.542;49.408;2023-03-01T13:57:05;-3.63;61.20
67133;HTU21D;54052;53.542;49.408;2023-03-01T13:59:32;-3.55;59.83
67133;HTU21D;54052;53.542;49.408;2023-03-01T14:01:59;-3.49;59.71
67133;HTU21D;54052;53.542;49.408;2023-03-01T14:04:29;-3.51;59.82
67133;HTU21D;54052;53.542;49.408;2023-03-01T14:07:16;-3.61;60.57
67133;HTU21D;54052;53.542;49.408;2023-03-01T14:09:44;-3.54;59.86
67133;HTU21D;54052;53.542;49.408;2023-03-01T14:20:28;-3.63;61.83
67133;HTU21D;54052;53.542;49.408;2023-03-01T14:22:59;-3.68;62.48
67133;HTU21D;54052;53.542;49.408;2023-03-01T14:25:30;-3.82;63.51
67133;HTU21D;54052;53.542;49.408;2023-03-01T14:27:58;-3.79;63.56
67133;HTU21D;54052;53.542;49.408;2023-03-01T14:30:41;-3.78;63.37
67133;HTU21D;54052;53.542;49.408;2023-03-01T14:33:25;-3.90;64.14
67133;HTU21D;54052;53.542;49.408;2023-03-01T14:36:00;-3.79;64.14
67133;HTU21D;54052;53.542;49.408;2023-03-01T14:40:59;-3.70;64.59
67133;HTU21D;54052;53.542;49.408;2023-03-01T14:43:29;-3.79;65.37
67133;HTU21D;54052;53.542;49.408;2023-03-01T14:45:55;-3.74;66.07
67133;HTU21D;54052;53.542;49.408;2023-03-01T14:48:22;-3.74;64.43
67133;HTU21D;54052;53.542;49.408;2023-03-01T14:50:49;-3.85;65.24
67133;HTU21D;54052;53.542;49.408;2023-03-01T14:53:21;-3.71;64.90
67133;HTU21D;54052;53.542;49.408;2023-03-01T14:55:54;-3.64;64.82
67133;HTU21D;54052;53.542;49.408;2023-03-01T14:58:25;-3.57;64.19
67133;HTU21D;54052;53.542;49.408;2023-03-01T15:01:04;-3.75;64.24
67133;HTU21D;54052;53.542;49.408;2023-03-01T15:03:50;-3.77;63.91
67133;HTU21D;54052;53.542;49.408;2023-03-01T15:06:19;-3.85;64.52
67133;HTU21D;54052;53.542;49.408;2023-03-01T15:08:48;-3.82;64.14
67133;HTU21D;54052;53.542;49.408;2023-03-01T15:11:27;-3.71;64.08
67133;HTU21D;54052;53.542;49.408;2023-03-01T15:13:53;-3.82;63.98
67133;HTU21D;54052;53.542;49.408;2023-03-01T15:16:30;-3.84;63.88
67133;HTU21D;54052;53.542;49.408;2023-03-01T15:19:02;-3.89;64.61
67133;HTU21D;54052;53.542;49.408;2023-03-01T15:21:48;-3.95;65.09
67133;HTU21D;54052;53.542;49.408;2023-03-01T15:24:25;-4.00;65.12
67133;HTU21D;54052;53.542;49.408;2023-03-01T15:26:59;-4.01;66.11
67133;HTU21D;54052;53.542;49.408;2023-03-01T15:29:33;-4.07;66.91
67133;HTU21D;54052;53.542;49.408;2023-03-01T15:32:05;-4.22;67.86
67133;HTU21D;54052;53.542;49.408;2023-03-01T15:34:38;-4.37;68.34
67133;HTU21D;54052;53.542;49.408;2023-03-01T15:37:15;-4.37;68.92
67133;HTU21D;54052;53.542;49.408;2023-03-01T15:39:55;-4.29;68.71
67133;HTU21D;54052;53.542;49.408;2023-03-01T15:47:56;-4.22;69.54
67133;HTU21D;54052;53.542;49.408;2023-03-01T15:50:43;-4.30;70.23
67133;HTU21D;54052;53.542;49.408;2023-03-01T15:53:13;-4.23;70.45
67133;HTU21D;54052;53.542;49.408;2023-03-01T15:55:40;-4.13;71.06
67133;HTU21D;54052;53.542;49.408;2023-03-01T15:58:23;-4.17;70.93
67133;HTU21D;54052;53.542;49.408;2023-03-01T16:00:51;-4.13;71.69
67133;HTU21D;54052;53.542;49.408;2023-03-01T16:03:22;-4.24;72.32
67133;HTU21D;54052;53.542;49.408;2023-03-01T16:05:49;-4.24;72.38
67133;HTU21D;54052;53.542;49.408;2023-03-01T16:08:16;-4.23;72.41
67133;HTU21D;54052;53.542;49.408;2023-03-01T16:10:42;-4.24;73.22
67133;HTU21D;54052;53.542;49.408;2023-03-01T16:13:12;-4.23;72.84
67133;HTU21D;54052;53.542;49.408;2023-03-01T16:15:38;-4.25;72.73
67133;HTU21D;54052;53.542;49.408;2023-03-01T16:18:06;-4.28;73.16
67133;HTU21D;54052;53.542;49.408;2023-03-01T16:20:34;-4.28;72.72
67133;HTU21D;54052;53.542;49.408;2023-03-01T16:23:06;-4.29;72.96
67133;HTU21D;54052;53.542;49.408;2023-03-01T16:25:33;-4.27;72.87
67133;HTU21D;54052;53.542;49.408;2023-03-01T16:27:59;-4.26;72.79
67133;HTU21D;54052;53.542;49.408;2023-03-01T16:30:29;-4.27;72.77
67133;HTU21D;54052;53.542;49.408;2023-03-01T16:32:55;-4.37;74.20
67133;HTU21D;54052;53.542;49.408;2023-03-01T16:35:22;-4.41;72.85
67133;HTU21D;54052;53.542;49.408;2023-03-01T16:37:49;-4.34;71.78
67133;HTU21D;54052;53.542;49.408;2023-03-01T16:40:22;-4.30;72.11
67133;HTU21D;54052;53.542;49.408;2023-03-01T16:42:50;-4.23;71.13
67133;HTU21D;54052;53.542;49.408;2023-03-01T16:45:17;-4.13;70.77
67133;HTU21D;54052;53.542;49.408;2023-03-01T16:47:43;-4.13;71.71
67133;HTU21D;54052;53.542;49.408;2023-03-01T16:50:10;-4.14;70.43
67133;HTU21D;54052;53.542;49.408;2023-03-01T16:52:36;-4.11;70.10
67133;HTU21D;54052;53.542;49.408;2023-03-01T16:55:03;-4.14;69.68
67133;HTU21D;54052;53.542;49.408;2023-03-01T16:57:30;-4.23;69.61
67133;HTU21D;54052;53.542;49.408;2023-03-01T16:59:56;-4.14;70.00
67133;HTU21D;54052;53.542;49.408;2023-03-01T17:02:22;-4.07;69.15
67133;HTU21D;54052;53.542;49.408;2023-03-01T17:04:53;-3.94;68.75
67133;HTU21D;54052;53.542;49.408;2023-03-01T17:07:19;-4.06;67.41
67133;HTU21D;54052;53.542;49.408;2023-03-01T17:09:45;-4.14;68.23
67133;HTU21D;54052;53.542;49.408;2023-03-01T17:12:12;-4.14;67.93
67133;HTU21D;54052;53.542;49.408;2023-03-01T17:14:38;-4.16;67.93
67133;HTU21D;54052;53.542;49.408;2023-03-01T17:17:07;-4.30;66.97
67133;HTU21D;54052;53.542;49.408;2023-03-01T17:19:34;-4.39;68.24
67133;HTU21D;54052;53.542;49.408;2023-03-01T17:22:02;-4.40;68.01
67133;HTU21D;54052;53.542;49.408;2023-03-01T17:24:36;-4.29;67.68